DTMB Airport Information

Runway Information
Runway 07 Length 9678 ft width 148 ft
Elevation 8 ft Threshold 0 ft Heading 74
Runway 25 Length 9678 ft Width 148 ft
Elevation 8 ft Threshold 0 ft Heading 254
Airport Frequencies
Type APP Name BOURGUIBA Frequency 119.3 MHZ
Type ATIS Name MONASTIR A Frequency 113.1 MHZ
Type TWR Name BOURGUIBA Frequency 118.3 MHZ
Airport Navaids
Type VOR-DME Name Monastir Frequency 113100 KHZ
Airport Weather Information & NOTAM
ADDS - METARS form results

(1054 UTC 24 April 2019)
Data provider http://aviationweather.gov/metar/data/
 
METAR text: DTMB 241030Z 01006KT CAVOK 20/16 Q1013
Conditions at: DTMB (HABIB BOURGUIBA , TN) observed 1030 UTC 24 April 2019
Temperature: 20.0°C (68°F)
Dewpoint: 16.0°C (61°F) [RH = 78%]
Pressure (altimeter): 29.91 inches Hg (1013.0 mb)
Winds: from the N (10 degrees) at 7 MPH (6 knots; 3.1 m/s)
Visibility: 6 or more miles (10+ km)
Ceiling: ceiling and visibility are OK
Clouds: unknown
Weather: no significant weather observed at this time

METAR text: DTMB 241000Z 34005KT CAVOK 19/16 Q1012
Conditions at: DTMB (HABIB BOURGUIBA , TN) observed 1000 UTC 24 April 2019
Temperature: 19.0°C (66°F)
Dewpoint: 16.0°C (61°F) [RH = 83%]
Pressure (altimeter): 29.88 inches Hg (1012.0 mb)
Winds: from the NNW (340 degrees) at 6 MPH (5 knots; 2.6 m/s)
Visibility: 6 or more miles (10+ km)
Ceiling: ceiling and visibility are OK
Clouds: unknown
Weather: no significant weather observed at this time

Forecast for: DTMB (HABIB BOURGUIBA , TN)
Text: TAF DTMB 240500Z 2406/2506 29002KT 6000 NSC
Forecast period: 0600 to 1100 UTC 24 April 2019
Forecast type: FROM: standard forecast or significant change
Winds: from the WNW (290 degrees) at 2 MPH (2 knots; 1.0 m/s)
Visibility: 4 miles (6 km)
Ceiling: unknown
Clouds: missing
Weather: no significant weather forecast for this period
Text: BECMG 2411/2413 03015KT
Forecast period: 1100 UTC 24 April 2019 to 0600 UTC 25 April 2019
Forecast type: BECOMING: Conditions expected to become as follows by 1300 UTC 24 April 2019
Winds: from the NNE (30 degrees) at 17 MPH (15 knots; 7.7 m/s)
Visibility: 4 miles (6 km)
Ceiling: unknown
Clouds: missing
Weather: no significant weather forecast for this period